Time;durP1;ratioP1;P1;durP2;ratioP2;P2;SDS_P1;SDS_P2;PMS_P1;PMS_P2;Temp;Humidity;BMP_temperature;BMP_pressure;BME280_temperature;BME280_humidity;BME280_pressure;Samples;Min_cycle;Max_cycle;Signal;HPM_P1;HPM_P2
2021/06/08 00:01:40;;;;;;;8.40;7.10;;;16.60;99.90;;;;;;5076380;28;20537;-75
2021/06/08 00:04:07;;;;;;;8.77;6.20;;;16.50;99.90;;;;;;5075692;28;20203;-75
2021/06/08 00:06:33;;;;;;;11.20;7.70;;;16.60;99.90;;;;;;5075741;28;20199;-74
2021/06/08 00:09:01;;;;;;;9.47;7.60;;;16.50;99.90;;;;;;5076269;28;20195;-74
2021/06/08 00:11:27;;;;;;;10.80;7.40;;;16.40;99.90;;;;;;5075844;28;20196;-74
2021/06/08 00:13:54;;;;;;;12.13;7.53;;;16.30;99.90;;;;;;5068858;28;20265;-75
2021/06/08 00:42:36;;;;;;;9.70;8.60;;;16.00;99.90;;;;;;5068199;28;20589;-74
2021/06/08 00:45:06;;;;;;;10.37;8.80;;;15.80;99.90;;;;;;5059275;28;20204;-75
2021/06/08 00:47:33;;;;;;;13.63;8.90;;;15.90;99.90;;;;;;5058222;28;20192;-74
2021/06/08 01:55:40;;;;;;;14.03;10.60;;;15.40;99.90;;;;;;5097506;27;20238;-74
2021/06/08 01:58:09;;;;;;;15.90;11.27;;;15.30;99.90;;;;;;5118609;27;20281;-74
2021/06/08 02:00:45;;;;;;;15.10;11.30;;;15.40;99.90;;;;;;5113445;28;20258;-75
2021/06/08 02:03:17;;;;;;;12.80;10.83;;;15.40;99.90;;;;;;5114014;28;20373;-76
2021/06/08 02:05:50;;;;;;;12.40;10.93;;;15.30;99.90;;;;;;5113315;28;20190;-74
2021/06/08 02:08:29;;;;;;;13.53;10.67;;;15.30;99.90;;;;;;5114104;28;20255;-74
2021/06/08 02:11:01;;;;;;;17.43;11.70;;;15.30;99.90;;;;;;5101157;28;20613;-75
2021/06/08 02:13:33;;;;;;;15.37;10.97;;;15.40;99.90;;;;;;5113819;28;20213;-74
2021/06/08 02:16:07;;;;;;;14.43;10.93;;;15.40;99.90;;;;;;5113984;28;20194;-74
2021/06/08 02:18:35;;;;;;;15.60;11.30;;;15.40;99.90;;;;;;5113943;28;20277;-74
2021/06/08 02:21:04;;;;;;;15.80;11.77;;;15.40;99.90;;;;;;5113655;28;20239;-74
2021/06/08 02:23:31;;;;;;;14.50;11.40;;;15.40;99.90;;;;;;5113485;28;20277;-74
2021/06/08 02:26:00;;;;;;;14.80;11.60;;;15.30;99.90;;;;;;5112984;28;20289;-74
2021/06/08 02:28:29;;;;;;;18.73;11.40;;;15.30;99.90;;;;;;5113646;28;20258;-75
2021/06/08 02:30:57;;;;;;;13.27;11.67;;;15.20;99.90;;;;;;5113485;28;20297;-73
2021/06/08 02:33:25;;;;;;;17.93;11.37;;;15.30;99.90;;;;;;5113423;28;20218;-75
2021/06/08 02:35:52;;;;;;;18.77;11.87;;;15.20;99.90;;;;;;5113216;28;20229;-74
2021/06/08 02:38:19;;;;;;;17.07;11.73;;;15.20;99.90;;;;;;5113399;28;20190;-74
2021/06/08 02:40:47;;;;;;;19.27;12.90;;;15.20;99.90;;;;;;5113398;28;20254;-75
2021/06/08 02:43:19;;;;;;;16.47;12.67;;;15.20;99.90;;;;;;5113309;28;20655;-74
2021/06/08 02:45:46;;;;;;;15.13;12.23;;;15.10;99.90;;;;;;5113096;28;20289;-74
2021/06/08 02:48:15;;;;;;;15.73;12.40;;;15.10;99.90;;;;;;5113162;28;20331;-74
2021/06/08 02:50:44;;;;;;;18.70;13.63;;;15.00;99.90;;;;;;5113535;28;20198;-74
2021/06/08 02:53:11;;;;;;;18.00;13.43;;;15.10;99.90;;;;;;5108559;28;20206;-74
2021/06/08 02:55:38;;;;;;;19.83;13.20;;;15.20;99.90;;;;;;5105355;28;20198;-75
2021/06/08 02:58:06;;;;;;;18.80;13.63;;;15.30;99.90;;;;;;5113338;28;20294;-75
2021/06/08 03:00:34;;;;;;;21.47;13.43;;;15.30;99.90;;;;;;5113130;28;20198;-74
2021/06/08 03:03:03;;;;;;;20.20;13.10;;;15.20;99.90;;;;;;5113489;28;20194;-74
2021/06/08 03:05:33;;;;;;;17.47;13.53;;;15.10;99.90;;;;;;5113512;28;20194;-74
2021/06/08 03:08:03;;;;;;;16.53;13.30;;;15.00;99.90;;;;;;5113324;28;20290;-74
2021/06/08 03:10:33;;;;;;;16.17;12.97;;;15.10;99.90;;;;;;5109048;28;20194;-74
2021/06/08 03:13:01;;;;;;;18.60;13.37;;;15.20;99.90;;;;;;5113345;28;20240;-73
2021/06/08 03:15:31;;;;;;;16.23;12.77;;;15.20;99.90;;;;;;5113037;28;20206;-75
2021/06/08 03:17:58;;;;;;;21.73;14.17;;;15.20;99.90;;;;;;5114606;28;20311;-74
2021/06/08 03:20:31;;;;;;;18.60;14.13;;;15.30;99.90;;;;;;5117032;28;20701;-74
2021/06/08 03:23:02;;;;;;;19.97;14.90;;;15.30;99.90;;;;;;5117179;28;20229;-74
2021/06/08 03:25:29;;;;;;;17.33;13.87;;;15.10;99.90;;;;;;5116793;28;20676;-74
2021/06/08 03:27:57;;;;;;;15.77;13.40;;;15.10;99.90;;;;;;5108643;28;20274;-76
2021/06/08 03:30:25;;;;;;;22.30;13.50;;;15.20;99.90;;;;;;5111130;28;20201;-74
2021/06/08 03:32:53;;;;;;;20.27;14.37;;;15.20;99.90;;;;;;5116939;28;20201;-74
2021/06/08 03:35:22;;;;;;;15.03;12.87;;;15.20;99.90;;;;;;5117760;27;20251;-74
2021/06/08 03:37:50;;;;;;;20.77;13.80;;;15.10;99.90;;;;;;5113816;28;20293;-74
2021/06/08 03:40:17;;;;;;;18.70;13.63;;;15.10;99.90;;;;;;5116801;28;20226;-74
2021/06/08 03:42:45;;;;;;;18.87;14.10;;;15.00;99.90;;;;;;5116989;28;20647;-75
2021/06/08 03:45:14;;;;;;;20.53;15.30;;;15.10;99.90;;;;;;5117072;28;20204;-75
2021/06/08 03:47:41;;;;;;;21.17;15.70;;;15.20;99.90;;;;;;5117133;27;20228;-74
2021/06/08 03:50:09;;;;;;;24.00;15.30;;;15.40;99.90;;;;;;5117214;28;20193;-74
2021/06/08 03:52:37;;;;;;;17.87;14.07;;;15.40;99.90;;;;;;5105129;28;20198;-74
2021/06/08 03:55:04;;;;;;;19.00;13.47;;;15.50;99.90;;;;;;5096854;28;20317;-73
2021/06/08 03:57:38;;;;;;;20.37;14.30;;;15.60;99.90;;;;;;5097430;28;20332;-74
2021/06/08 04:00:06;;;;;;;17.73;14.13;;;15.80;99.90;;;;;;5096675;28;20274;-75
2021/06/08 04:02:34;;;;;;;21.23;14.17;;;15.90;99.90;;;;;;5096564;28;20232;-74
2021/06/08 04:05:01;;;;;;;18.27;13.30;;;16.00;99.90;;;;;;5100610;28;20225;-74
2021/06/08 04:07:28;;;;;;;15.33;12.70;;;16.00;99.90;;;;;;5096115;28;20214;-74
2021/06/08 04:09:56;;;;;;;14.03;11.57;;;16.10;99.90;;;;;;5100894;28;20229;-75
2021/06/08 04:12:22;;;;;;;17.87;13.13;;;16.00;99.90;;;;;;5095572;28;20218;-74
2021/06/08 04:14:49;;;;;;;18.57;13.33;;;16.10;99.90;;;;;;5097665;28;20303;-74
2021/06/08 04:17:16;;;;;;;15.47;12.50;;;16.10;99.90;;;;;;5102505;28;20611;-74
2021/06/08 04:19:44;;;;;;;15.30;13.13;;;16.20;99.90;;;;;;5096773;28;20281;-74
2021/06/08 04:22:10;;;;;;;18.93;13.10;;;16.30;99.90;;;;;;5097444;28;20625;-74
2021/06/08 04:24:36;;;;;;;17.13;12.37;;;16.40;99.90;;;;;;5092420;28;20301;-74
2021/06/08 04:27:05;;;;;;;16.43;13.07;;;16.50;99.90;;;;;;5098571;28;20711;-74
2021/06/08 04:29:32;;;;;;;21.43;13.33;;;16.70;99.90;;;;;;5096147;28;20241;-74
2021/06/08 04:32:00;;;;;;;14.07;11.70;;;16.90;99.90;;;;;;5096407;28;20209;-74
2021/06/08 04:34:26;;;;;;;17.50;13.23;;;17.00;99.90;;;;;;5097727;28;20723;-74
2021/06/08 04:36:53;;;;;;;15.60;11.67;;;17.20;99.90;;;;;;5097466;28;20188;-73
2021/06/08 04:39:19;;;;;;;14.87;11.70;;;17.60;99.90;;;;;;5104246;28;20278;-74
2021/06/08 04:41:46;;;;;;;14.50;11.50;;;18.10;99.90;;;;;;5106471;28;20290;-74
2021/06/08 04:44:17;;;;;;;15.30;11.43;;;18.90;99.90;;;;;;5105372;28;20194;-74
2021/06/08 04:46:44;;;;;;;17.17;11.87;;;19.90;99.90;;;;;;5102730;28;20277;-75
2021/06/08 04:49:15;;;;;;;12.10;10.53;;;21.00;99.90;;;;;;5099060;28;20278;-74
2021/06/08 04:51:42;;;;;;;16.07;10.77;;;22.10;99.90;;;;;;5096195;28;20194;-74
2021/06/08 04:54:08;;;;;;;11.52;10.30;;;23.30;99.90;;;;;;5101334;28;20258;-74
2021/06/08 04:56:35;;;;;;;13.10;10.55;;;24.00;99.90;;;;;;5095168;28;20257;-75
2021/06/08 04:59:01;;;;;;;13.77;9.95;;;24.90;99.90;;;;;;5099376;28;20276;-74
2021/06/08 05:01:34;;;;;;;13.80;10.15;;;25.70;99.90;;;;;;5105557;28;20301;-75
2021/06/08 05:04:06;;;;;;;12.05;10.00;;;26.40;99.90;;;;;;5104818;28;20277;-74
2021/06/08 05:06:37;;;;;;;13.43;10.30;;;27.10;99.90;;;;;;5102036;28;20285;-74
2021/06/08 05:09:05;;;;;;;11.25;9.40;;;27.80;99.90;;;;;;5102981;28;20179;-74
2021/06/08 05:11:36;;;;;;;12.18;9.52;;;28.00;99.90;;;;;;5103812;28;20190;-76
2021/06/08 05:14:06;;;;;;;10.32;9.32;;;27.80;99.90;;;;;;5104578;28;20289;-75
2021/06/08 05:16:34;;;;;;;12.48;10.02;;;27.20;99.90;;;;;;5103033;28;20222;-75
2021/06/08 05:19:01;;;;;;;12.02;9.93;;;26.40;99.90;;;;;;5095254;28;20194;-74
2021/06/08 05:21:29;;;;;;;14.70;11.48;;;25.80;99.90;;;;;;5098316;28;20247;-75
2021/06/08 05:23:56;;;;;;;13.68;9.05;;;25.20;99.90;;;;;;5110851;28;20194;-74
2021/06/08 05:26:24;;;;;;;19.08;10.20;;;25.10;99.90;;;;;;5102109;28;20545;-74
2021/06/08 05:28:50;;;;;;;14.73;9.63;;;25.80;99.90;;;;;;5095840;28;20225;-74
2021/06/08 05:31:19;;;;;;;15.85;10.05;;;27.10;99.90;;;;;;5100413;28;20320;-75
2021/06/08 05:33:47;;;;;;;9.98;8.73;;;28.40;99.90;;;;;;5104001;28;20229;-74
2021/06/08 05:36:13;;;;;;;15.13;8.30;;;29.80;99.90;;;;;;5114613;28;20284;-75
2021/06/08 05:38:42;;;;;;;10.77;7.85;;;31.00;99.90;;;;;;5097069;28;20598;-75
2021/06/08 05:41:12;;;;;;;10.38;7.82;;;31.40;99.90;;;;;;5098149;28;20198;-75
2021/06/08 05:43:39;;;;;;;17.17;8.95;;;31.70;99.90;;;;;;5114462;28;20198;-75
2021/06/08 05:46:07;;;;;;;10.57;7.85;;;31.50;99.90;;;;;;5113512;28;20197;-75
2021/06/08 05:48:35;;;;;;;14.30;8.57;;;31.40;99.90;;;;;;5107390;28;20284;-75
2021/06/08 05:51:04;;;;;;;14.25;7.82;;;31.90;99.90;;;;;;5106413;28;20281;-75
2021/06/08 05:53:31;;;;;;;11.82;8.65;;;32.80;99.90;;;;;;5103184;28;20220;-75
2021/06/08 05:55:58;;;;;;;13.35;8.32;;;33.90;99.90;;;;;;5107118;28;20645;-76
2021/06/08 05:58:26;;;;;;;9.27;7.93;;;34.70;99.90;;;;;;5103198;28;20267;-74
2021/06/08 06:00:53;;;;;;;13.70;8.70;;;35.50;99.90;;;;;;5097095;28;20190;-73
2021/06/08 06:03:20;;;;;;;16.92;8.52;;;36.20;99.90;;;;;;5098366;28;20211;-74
2021/06/08 06:05:48;;;;;;;9.65;8.65;;;36.20;99.90;;;;;;5113762;28;20202;-75
2021/06/08 06:08:16;;;;;;;13.07;7.70;;;36.20;99.90;;;;;;5109012;28;20243;-75
2021/06/08 06:10:43;;;;;;;13.43;9.55;;;36.80;99.90;;;;;;5106456;28;20194;-75
2021/06/08 06:13:14;;;;;;;12.65;9.30;;;37.40;99.90;;;;;;5098874;28;20187;-75
2021/06/08 06:15:40;;;;;;;11.77;9.48;;;37.90;99.90;;;;;;5105919;28;20218;-75
2021/06/08 06:18:08;;;;;;;16.58;9.27;;;38.20;99.90;;;;;;5111747;28;20292;-74
2021/06/08 06:20:35;;;;;;;14.23;10.15;;;38.00;99.90;;;;;;5102047;28;20190;-75
2021/06/08 06:23:02;;;;;;;13.32;9.80;;;38.30;99.90;;;;;;5107337;28;20309;-75
2021/06/08 06:25:30;;;;;;;10.82;9.73;;;38.90;99.90;;;;;;5111591;28;20632;-75
2021/06/08 06:27:56;;;;;;;11.45;10.07;;;39.20;99.90;;;;;;5113425;28;20194;-75
2021/06/08 06:30:24;;;;;;;11.10;9.98;;;39.70;99.90;;;;;;5098681;28;20187;-75
2021/06/08 06:32:51;;;;;;;18.48;11.05;;;40.20;99.90;;;;;;5106597;28;20257;-75
2021/06/08 06:35:18;;;;;;;12.77;10.98;;;40.50;99.90;;;;;;5109838;28;20198;-75
2021/06/08 06:37:46;;;;;;;12.43;10.90;;;40.90;99.20;;;;;;5105628;28;20228;-75
2021/06/08 06:40:16;;;;;;;13.82;10.65;;;41.10;98.50;;;;;;5109278;28;20631;-76
2021/06/08 06:42:46;;;;;;;19.08;11.52;;;41.20;98.50;;;;;;5113438;28;20214;-75
2021/06/08 06:45:17;;;;;;;14.75;11.43;;;41.10;97.60;;;;;;5110617;28;20232;-75
2021/06/08 06:47:55;;;;;;;13.23;10.95;;;41.30;97.20;;;;;;5114132;28;20190;-75
2021/06/08 06:50:25;;;;;;;16.60;11.10;;;41.80;97.20;;;;;;5133598;28;20174;-75
2021/06/08 06:52:56;;;;;;;12.68;10.88;;;42.00;95.20;;;;;;5132392;28;20193;-75
2021/06/08 06:55:23;;;;;;;13.48;10.65;;;42.00;94.90;;;;;;5130290;28;20296;-76
2021/06/08 06:57:53;;;;;;;13.82;11.10;;;41.80;94.70;;;;;;5123692;28;20210;-76
2021/06/08 07:00:20;;;;;;;13.23;10.98;;;41.70;94.70;;;;;;5116874;28;20191;-75
2021/06/08 07:02:49;;;;;;;13.43;11.70;;;41.80;94.90;;;;;;5114103;28;20666;-76
2021/06/08 07:05:18;;;;;;;13.80;10.73;;;42.10;94.60;;;;;;5114255;28;20193;-75
2021/06/08 07:07:46;;;;;;;12.60;11.30;;;42.30;94.40;;;;;;5106354;28;20193;-75
2021/06/08 07:10:16;;;;;;;17.02;10.93;;;41.70;92.60;;;;;;5112778;28;20272;-75
2021/06/08 07:12:44;;;;;;;12.30;11.00;;;41.10;93.10;;;;;;5106635;28;20592;-76
2021/06/08 07:15:14;;;;;;;11.82;10.63;;;40.30;93.40;;;;;;5125898;28;20280;-75
2021/06/08 07:17:41;;;;;;;12.23;10.10;;;40.80;93.00;;;;;;5118777;28;20261;-76
2021/06/08 07:20:13;;;;;;;11.05;9.40;;;40.70;93.30;;;;;;5105807;28;20198;-75
2021/06/08 07:22:41;;;;;;;11.60;10.40;;;41.30;93.40;;;;;;5090137;28;20588;-75
2021/06/08 07:25:09;;;;;;;12.45;8.98;;;41.50;92.00;;;;;;5109883;28;20225;-75
2021/06/08 07:27:35;;;;;;;11.18;8.15;;;41.00;91.90;;;;;;5096340;28;20199;-75
2021/06/08 07:30:03;;;;;;;10.68;7.70;;;41.40;92.30;;;;;;5098781;28;20750;-75
2021/06/08 07:32:37;;;;;;;12.15;8.20;;;41.70;91.30;;;;;;5114928;28;20294;-75
2021/06/08 07:35:10;;;;;;;9.15;5.60;;;41.90;92.10;;;;;;5114576;28;20220;-75
2021/06/08 07:37:43;;;;;;;6.55;5.95;;;42.00;88.70;;;;;;5113665;28;20190;-75
2021/06/08 07:40:14;;;;;;;8.93;6.68;;;41.90;90.10;;;;;;5113274;28;20714;-75
2021/06/08 07:42:44;;;;;;;9.27;7.88;;;41.80;89.80;;;;;;5113668;28;20190;-75
2021/06/08 07:45:12;;;;;;;8.77;7.55;;;42.30;90.70;;;;;;5111911;28;20197;-75
2021/06/08 07:47:42;;;;;;;7.03;6.40;;;42.80;90.70;;;;;;5113749;28;20190;-74
2021/06/08 07:50:10;;;;;;;7.97;7.20;;;42.80;86.30;;;;;;5113159;28;20284;-76
2021/06/08 07:52:38;;;;;;;13.90;8.20;;;41.20;87.90;;;;;;5113988;28;20670;-75
2021/06/08 07:55:06;;;;;;;10.27;8.25;;;39.60;89.80;;;;;;5113721;28;20221;-74
2021/06/08 07:57:33;;;;;;;11.52;8.02;;;40.60;91.30;;;;;;5113510;28;20190;-74
2021/06/08 07:59:59;;;;;;;10.05;8.93;;;40.90;89.90;;;;;;5114003;28;20335;-74
2021/06/08 08:02:27;;;;;;;10.05;9.02;;;41.00;90.60;;;;;;5113591;28;20222;-75
2021/06/08 08:04:57;;;;;;;9.48;8.57;;;41.00;88.40;;;;;;5113758;28;20292;-75
2021/06/08 08:07:25;;;;;;;11.27;7.60;;;41.80;90.80;;;;;;5116883;28;20200;-75
2021/06/08 08:09:53;;;;;;;8.20;7.45;;;42.60;90.80;;;;;;5116796;28;20196;-75
2021/06/08 08:12:19;;;;;;;7.03;6.38;;;43.00;89.40;;;;;;5117019;28;20272;-74
2021/06/08 08:14:48;;;;;;;8.65;7.65;;;43.20;88.40;;;;;;5116887;28;20226;-75
2021/06/08 08:17:16;;;;;;;8.18;7.38;;;43.00;88.00;;;;;;5116520;28;20197;-74
2021/06/08 08:19:43;;;;;;;8.13;6.68;;;43.10;88.10;;;;;;5116454;28;20200;-75
2021/06/08 08:22:11;;;;;;;7.90;6.13;;;41.80;84.70;;;;;;5116388;28;20318;-74
2021/06/08 08:24:37;;;;;;;11.05;7.18;;;41.60;85.80;;;;;;5116819;28;20276;-75
2021/06/08 08:27:06;;;;;;;9.07;6.90;;;41.20;86.90;;;;;;5116847;28;20644;-75
2021/06/08 08:29:34;;;;;;;9.02;8.18;;;41.20;86.50;;;;;;5116752;28;20200;-75
2021/06/08 08:32:01;;;;;;;8.93;8.02;;;41.40;86.50;;;;;;5107928;28;20325;-74
2021/06/08 08:34:28;;;;;;;8.38;6.53;;;41.30;86.80;;;;;;5116253;28;20224;-75
2021/06/08 08:36:55;;;;;;;7.93;7.03;;;41.90;87.20;;;;;;5116063;28;20225;-75
2021/06/08 08:39:22;;;;;;;6.47;5.68;;;42.90;85.40;;;;;;5115995;28;20532;-75
2021/06/08 08:41:53;;;;;;;5.80;5.25;;;43.10;85.80;;;;;;5116237;28;20193;-74
2021/06/08 08:44:19;;;;;;;8.27;7.45;;;43.30;85.00;;;;;;5116496;28;20185;-74
2021/06/08 08:46:46;;;;;;;7.45;6.75;;;43.20;82.50;;;;;;5116046;28;20228;-75
2021/06/08 08:49:13;;;;;;;8.90;7.47;;;43.20;85.40;;;;;;5116227;28;20281;-74
2021/06/08 08:51:42;;;;;;;7.85;7.13;;;43.90;85.30;;;;;;5116415;28;20291;-75
2021/06/08 08:54:11;;;;;;;12.90;7.43;;;43.80;82.30;;;;;;5116041;28;20539;-74
2021/06/08 08:56:40;;;;;;;7.90;7.20;;;43.80;85.10;;;;;;5115730;28;20221;-74
2021/06/08 08:59:08;;;;;;;7.93;7.22;;;43.80;79.90;;;;;;5115469;28;20239;-74
2021/06/08 09:01:35;;;;;;;7.80;7.00;;;43.80;82.20;;;;;;5107372;28;20190;-75
2021/06/08 09:04:04;;;;;;;8.25;7.63;;;44.10;80.80;;;;;;5099656;28;20194;-74
2021/06/08 09:06:32;;;;;;;8.35;7.50;;;44.80;79.30;;;;;;5103713;28;20196;-74
2021/06/08 09:09:00;;;;;;;7.32;6.63;;;44.50;80.30;;;;;;5115725;28;20185;-74
2021/06/08 09:11:27;;;;;;;7.63;6.93;;;44.80;80.40;;;;;;5103797;28;20209;-74
2021/06/08 09:13:55;;;;;;;7.78;7.07;;;44.90;79.60;;;;;;5114914;28;20274;-75
2021/06/08 09:16:22;;;;;;;8.68;7.68;;;45.20;80.60;;;;;;5115007;28;20268;-75
2021/06/08 09:18:49;;;;;;;9.40;7.57;;;45.00;79.20;;;;;;5111965;28;20204;-74
2021/06/08 09:21:18;;;;;;;8.88;7.97;;;44.30;77.90;;;;;;5115440;28;20204;-74
2021/06/08 09:23:46;;;;;;;9.55;7.50;;;43.10;81.00;;;;;;5115336;28;20202;-75
2021/06/08 09:26:14;;;;;;;8.88;8.05;;;43.90;81.70;;;;;;5115242;28;20239;-74
2021/06/08 09:28:41;;;;;;;9.55;8.45;;;44.00;78.50;;;;;;5115180;28;20276;-74
2021/06/08 09:31:12;;;;;;;8.15;7.45;;;44.10;79.00;;;;;;5114875;28;20296;-75
2021/06/08 09:33:40;;;;;;;8.27;7.53;;;44.20;75.30;;;;;;5115186;28;20268;-75
2021/06/08 09:36:08;;;;;;;8.45;6.70;;;44.20;78.10;;;;;;5112789;28;20889;-75
2021/06/08 09:38:40;;;;;;;8.23;7.43;;;44.50;79.30;;;;;;5115192;28;20285;-74
2021/06/08 09:41:26;;;;;;;14.80;10.82;;;44.00;76.30;;;;;;5105806;28;20191;-74
2021/06/08 09:43:58;;;;;;;12.18;10.55;;;42.80;80.50;;;;;;5103396;28;20202;-75
2021/06/08 09:46:29;;;;;;;11.63;10.52;;;42.70;80.30;;;;;;5101453;28;20209;-75
2021/06/08 09:48:58;;;;;;;11.63;10.43;;;42.20;80.90;;;;;;5110040;28;20292;-75
2021/06/08 09:51:26;;;;;;;11.25;10.15;;;41.40;81.30;;;;;;5114454;28;20254;-75
2021/06/08 09:53:53;;;;;;;13.23;9.40;;;42.10;82.70;;;;;;5098516;28;20606;-75
2021/06/08 09:56:20;;;;;;;19.30;8.82;;;42.00;82.10;;;;;;5112963;28;20705;-75
2021/06/08 09:58:48;;;;;;;15.63;8.88;;;38.90;81.40;;;;;;5115023;28;20628;-75
2021/06/08 10:01:20;;;;;;;13.50;8.93;;;36.60;85.10;;;;;;5114967;28;20194;-73
2021/06/08 10:03:50;;;;;;;10.48;9.48;;;35.00;87.50;;;;;;5114449;28;20198;-74
2021/06/08 10:06:19;;;;;;;15.50;9.43;;;33.60;90.10;;;;;;5114497;28;20198;-74
2021/06/08 10:08:57;;;;;;;11.23;9.70;;;33.20;90.70;;;;;;5114359;28;20197;-74
2021/06/08 10:11:25;;;;;;;11.80;10.32;;;35.20;91.30;;;;;;5114004;28;20596;-74
2021/06/08 10:13:57;;;;;;;9.90;8.93;;;37.50;89.10;;;;;;5113944;28;20622;-73
2021/06/08 10:16:27;;;;;;;13.27;11.32;;;38.50;86.90;;;;;;5113630;28;20194;-74
2021/06/08 10:18:55;;;;;;;10.27;9.27;;;37.50;82.10;;;;;;5109878;28;20198;-74
2021/06/08 10:21:46;;;;;;;9.52;8.63;;;35.40;89.80;;;;;;5099165;28;20517;-74
2021/06/08 10:24:14;;;;;;;9.63;8.18;;;36.40;89.60;;;;;;5111432;27;20193;-74
2021/06/08 10:26:45;;;;;;;9.63;8.43;;;37.40;86.80;;;;;;5132920;27;20205;-74
2021/06/08 10:29:12;;;;;;;13.77;9.38;;;38.20;83.90;;;;;;5106218;27;20203;-74
2021/06/08 10:31:41;;;;;;;9.05;8.07;;;36.30;85.30;;;;;;5099758;28;20538;-74
2021/06/08 10:34:10;;;;;;;10.80;9.80;;;34.60;89.30;;;;;;5100403;28;20281;-75
2021/06/08 10:36:39;;;;;;;9.43;8.52;;;34.30;86.70;;;;;;5099536;28;20199;-74
2021/06/08 10:39:06;;;;;;;10.13;8.90;;;33.60;89.10;;;;;;5100684;28;20205;-75
2021/06/08 10:41:34;;;;;;;10.40;8.75;;;34.20;88.60;;;;;;5099700;28;20680;-74
2021/06/08 10:44:01;;;;;;;10.20;8.77;;;35.40;90.00;;;;;;5102834;28;20654;-74
2021/06/08 10:46:31;;;;;;;9.85;8.85;;;35.60;86.00;;;;;;5105666;28;20187;-74
2021/06/08 10:48:59;;;;;;;11.60;10.40;;;34.90;87.60;;;;;;5108412;28;20225;-74
2021/06/08 10:51:29;;;;;;;9.43;8.27;;;34.60;87.60;;;;;;5110316;28;20276;-74
2021/06/08 10:53:57;;;;;;;17.88;10.77;;;35.30;90.40;;;;;;5113280;28;20197;-74
2021/06/08 10:56:26;;;;;;;35.58;11.50;;;32.80;89.50;;;;;;5113460;28;20206;-74
2021/06/08 10:58:55;;;;;;;11.63;9.55;;;31.70;92.00;;;;;;5100989;28;20234;-73
2021/06/08 11:01:48;;;;;;;13.05;9.40;;;31.10;92.70;;;;;;5093257;28;20198;-74
2021/06/08 11:04:19;;;;;;;10.40;8.13;;;31.50;94.20;;;;;;5099093;28;20222;-73
2021/06/08 11:06:56;;;;;;;7.82;7.03;;;32.50;92.80;;;;;;5091572;28;20539;-73
2021/06/08 11:09:37;;;;;;;11.20;9.50;;;31.90;93.00;;;;;;5098603;28;20197;-73
2021/06/08 11:12:23;;;;;;;9.95;8.65;;;30.40;92.10;;;;;;5098876;28;20208;-74
2021/06/08 11:14:57;;;;;;;10.23;9.20;;;30.10;94.00;;;;;;5099479;28;20553;-73
2021/06/08 11:17:37;;;;;;;8.88;7.93;;;30.40;93.70;;;;;;5102626;28;20190;-73
2021/06/08 11:20:23;;;;;;;12.60;8.60;;;32.60;94.20;;;;;;5103487;28;20642;-74
2021/06/08 11:23:05;;;;;;;10.70;8.68;;;33.60;90.20;;;;;;5098744;28;20540;-74
2021/06/08 11:25:52;;;;;;;10.88;8.63;;;34.90;90.00;;;;;;5111347;28;20214;-74
2021/06/08 11:28:21;;;;;;;9.13;7.20;;;35.90;89.60;;;;;;5104440;28;20236;-74
2021/06/08 11:31:00;;;;;;;8.18;6.63;;;37.80;89.60;;;;;;5100610;28;20647;-74
2021/06/08 11:33:31;;;;;;;9.88;8.88;;;38.90;88.90;;;;;;5105184;28;20632;-74
2021/06/08 11:36:00;;;;;;;9.85;7.50;;;38.50;82.40;;;;;;5087155;28;20207;-74
2021/06/08 11:38:34;;;;;;;7.05;6.45;;;37.60;83.00;;;;;;5099552;28;20605;-74
2021/06/08 11:41:07;;;;;;;6.25;5.65;;;36.20;84.00;;;;;;5105887;28;20229;-73
2021/06/08 11:43:55;;;;;;;12.30;7.75;;;34.50;88.80;;;;;;5113191;28;20246;-74
2021/06/08 11:46:28;;;;;;;9.23;8.32;;;32.00;88.60;;;;;;5115228;28;20247;-74
2021/06/08 11:49:10;;;;;;;27.52;8.95;;;30.70;90.90;;;;;;5112870;28;20203;-74
2021/06/08 11:51:47;;;;;;;10.32;7.82;;;29.60;92.60;;;;;;5100598;28;20202;-74
2021/06/08 11:54:19;;;;;;;7.50;6.72;;;29.40;94.40;;;;;;5102912;28;20620;-74
2021/06/08 11:56:54;;;;;;;13.68;7.93;;;31.00;94.30;;;;;;5106727;28;20183;-74
2021/06/08 11:59:26;;;;;;;9.57;6.95;;;31.70;90.80;;;;;;5107390;28;20632;-74
2021/06/08 12:01:56;;;;;;;10.38;5.47;;;32.30;90.70;;;;;;5106503;28;20214;-73
2021/06/08 12:04:27;;;;;;;8.60;5.90;;;33.10;91.40;;;;;;5103204;28;20198;-74
2021/06/08 12:07:07;;;;;;;8.48;7.65;;;33.00;91.40;;;;;;5105154;28;20524;-73
2021/06/08 12:09:45;;;;;;;8.00;6.28;;;33.10;89.40;;;;;;5100235;28;20190;-74
2021/06/08 12:12:13;;;;;;;6.03;4.85;;;34.50;91.50;;;;;;5104485;28;20378;-74
2021/06/08 12:14:51;;;;;;;6.32;5.63;;;34.70;88.90;;;;;;5105431;28;20224;-75
2021/06/08 12:17:18;;;;;;;6.72;6.13;;;33.60;87.60;;;;;;5102153;28;20196;-74
2021/06/08 12:19:45;;;;;;;10.18;6.63;;;33.40;88.40;;;;;;5104983;28;20214;-75
2021/06/08 12:22:24;;;;;;;7.68;6.28;;;33.40;88.90;;;;;;5102913;28;20248;-75
2021/06/08 12:24:57;;;;;;;7.00;6.30;;;33.90;88.50;;;;;;5107552;28;20198;-74
2021/06/08 12:27:37;;;;;;;6.68;6.07;;;33.70;87.70;;;;;;5116625;28;20277;-74
2021/06/08 12:30:06;;;;;;;8.35;6.03;;;33.80;88.20;;;;;;5098533;28;20281;-74
2021/06/08 12:32:33;;;;;;;9.10;7.13;;;33.50;90.00;;;;;;5113872;28;20197;-74
2021/06/08 12:35:00;;;;;;;8.52;7.38;;;31.50;89.20;;;;;;5109124;28;20241;-74
2021/06/08 12:37:28;;;;;;;9.82;6.72;;;29.90;91.40;;;;;;5115423;28;20217;-74
2021/06/08 12:39:56;;;;;;;8.35;6.72;;;29.50;93.70;;;;;;5116192;28;20194;-74
2021/06/08 12:42:24;;;;;;;7.53;6.10;;;29.30;92.80;;;;;;5114487;28;20289;-74
2021/06/08 12:44:51;;;;;;;11.20;6.38;;;28.90;94.20;;;;;;5105138;28;20285;-73
2021/06/08 12:47:19;;;;;;;7.53;6.28;;;28.50;94.70;;;;;;5102146;28;20277;-72
2021/06/08 12:49:48;;;;;;;7.22;5.75;;;28.50;94.90;;;;;;5108730;28;20214;-73
2021/06/08 12:52:18;;;;;;;7.68;6.60;;;28.90;94.80;;;;;;5114681;28;20201;-74
2021/06/08 12:54:46;;;;;;;9.40;6.18;;;29.80;93.90;;;;;;5105400;28;20222;-72
2021/06/08 12:57:23;;;;;;;10.52;5.68;;;31.10;92.70;;;;;;5112244;28;20229;-72
2021/06/08 12:59:55;;;;;;;5.70;5.15;;;32.00;91.80;;;;;;5108220;28;20247;-73
2021/06/08 13:02:24;;;;;;;5.85;4.20;;;32.60;91.50;;;;;;5106397;28;20273;-73
2021/06/08 13:04:51;;;;;;;19.52;4.40;;;32.80;88.60;;;;;;5095437;28;20672;-72
2021/06/08 13:07:21;;;;;;;23.05;5.07;;;32.10;90.40;;;;;;5104360;28;20193;-74
2021/06/08 13:09:47;;;;;;;10.02;4.07;;;32.10;90.20;;;;;;5106332;28;20199;-73
2021/06/08 13:12:17;;;;;;;5.18;4.10;;;32.60;90.60;;;;;;5104820;28;20278;-74
2021/06/08 13:14:43;;;;;;;5.03;4.53;;;32.90;88.30;;;;;;5105255;28;20305;-72
2021/06/08 13:17:22;;;;;;;5.93;5.18;;;32.70;89.10;;;;;;5099600;28;20228;-73
2021/06/08 13:19:48;;;;;;;6.22;5.40;;;31.90;90.90;;;;;;5102422;28;20195;-72
2021/06/08 13:22:17;;;;;;;6.97;4.80;;;32.50;90.80;;;;;;5105591;28;20186;-72
2021/06/08 13:24:44;;;;;;;4.90;4.28;;;33.00;91.30;;;;;;5102733;28;20190;-72
2021/06/08 13:27:20;;;;;;;5.43;4.90;;;33.60;91.00;;;;;;5105093;28;20230;-73
2021/06/08 13:29:47;;;;;;;8.90;6.75;;;33.40;89.60;;;;;;5102192;28;20202;-72
2021/06/08 13:32:25;;;;;;;5.80;5.20;;;33.10;90.90;;;;;;5105787;28;20273;-72
2021/06/08 13:35:09;;;;;;;9.15;5.30;;;33.80;90.70;;;;;;5101979;28;20214;-73
2021/06/08 13:37:36;;;;;;;8.35;5.20;;;32.00;89.50;;;;;;5102474;28;20281;-72
2021/06/08 13:40:15;;;;;;;8.75;5.63;;;31.30;91.20;;;;;;5104701;28;20201;-74
2021/06/08 13:42:54;;;;;;;7.75;4.63;;;31.40;91.30;;;;;;5106944;28;20183;-72
2021/06/08 13:45:29;;;;;;;7.72;5.53;;;31.00;92.40;;;;;;5099189;28;20277;-73
2021/06/08 13:47:57;;;;;;;7.22;5.50;;;30.20;91.30;;;;;;5101767;28;20186;-72
2021/06/08 13:50:26;;;;;;;5.82;4.47;;;29.60;91.80;;;;;;5103061;28;20201;-73
2021/06/08 13:55:44;;;;;;;5.47;4.00;;;29.20;94.00;;;;;;5097481;28;20222;-72
2021/06/08 14:01:10;;;;;;;5.03;3.90;;;29.40;92.80;;;;;;5063379;28;20198;-74
2021/06/08 14:03:37;;;;;;;5.53;3.72;;;30.50;92.80;;;;;;5098961;28;20289;-72
2021/06/08 14:06:08;;;;;;;4.80;4.40;;;30.80;92.30;;;;;;5104096;28;20668;-73
2021/06/08 14:08:35;;;;;;;5.60;4.25;;;31.10;90.90;;;;;;5105661;28;20190;-75
2021/06/08 14:11:04;;;;;;;5.43;4.80;;;31.60;92.50;;;;;;5114345;28;20267;-74
2021/06/08 14:13:38;;;;;;;5.60;4.30;;;31.80;90.50;;;;;;5115297;27;20200;-74
2021/06/08 14:16:06;;;;;;;10.18;4.78;;;31.70;91.30;;;;;;5113988;27;20288;-73
2021/06/08 14:18:32;;;;;;;7.95;4.53;;;32.10;90.70;;;;;;5113770;28;20240;-73
2021/06/08 14:20:59;;;;;;;6.40;4.47;;;32.50;90.80;;;;;;5114233;28;20281;-74
2021/06/08 14:23:27;;;;;;;5.60;5.10;;;32.90;91.40;;;;;;5113333;28;20317;-74
2021/06/08 14:25:54;;;;;;;6.05;5.45;;;33.10;91.10;;;;;;5106433;28;20544;-73
2021/06/08 14:28:21;;;;;;;8.85;5.57;;;33.30;91.20;;;;;;5100772;28;20222;-74